Time;durP1;ratioP1;P1;durP2;ratioP2;P2;SDS_P1;SDS_P2;PMS_P1;PMS_P2;Temp;Humidity;BMP_temperature;BMP_pressure;BME280_temperature;BME280_humidity;BME280_pressure;Samples;Min_cycle;Max_cycle;Signal;HPM_P1;HPM_P2
2023/02/28 00:00:20;;;;;;;;;;;;;;;;;;;;;
2023/02/28 00:03:05;;;;;;;47.70;28.90;;;;;;;0.79;59.87;101845.63;108894;1278;22769;-75
2023/02/28 00:06:25;;;;;;;39.30;25.60;;;;;;;0.80;59.93;101844.98;108844;1278;22019;-75
2023/02/28 00:10:29;;;;;;;;;;;;;;;;;;;;;
2023/02/28 00:14:08;;;;;;;;;;;;;;;;;;;;;
2023/02/28 00:18:18;;;;;;;43.20;29.30;;;;;;;0.71;60.32;101844.73;108521;1282;22025;-77
2023/02/28 00:20:50;;;;;;;51.90;34.30;;;;;;;0.69;60.34;101844.35;108699;1273;23040;-75
2023/02/28 00:24:26;;;;;;;52.00;35.30;;;;;;;0.67;60.47;101845.83;109041;1273;21998;-75
2023/02/28 00:27:36;;;;;;;;;;;;;;;;;;;;;
2023/02/28 00:30:57;;;;;;;45.50;33.70;;;;;;;0.54;60.40;101843.94;110095;1263;23709;-77
2023/02/28 00:38:02;;;;;;;;;;;;;;;;;;;;;
2023/02/28 00:44:32;;;;;;;;;;;;;;;;;;;;;
2023/02/28 00:48:08;;;;;;;;;;;;;;;;;;;;;
2023/02/28 00:56:33;;;;;;;;;;;;;;;;;;;;;
2023/02/28 01:00:13;;;;;;;44.10;30.10;;;;;;;-0.51;61.82;101858.82;109524;1271;22823;-75
2023/02/28 01:03:26;;;;;;;43.30;29.80;;;;;;;-0.59;62.13;101858.40;109408;1271;21985;-75
2023/02/28 01:06:51;;;;;;;;;;;;;;;;;;;;;
2023/02/28 01:10:22;;;;;;;;;;;;;;;;;;;;;
2023/02/28 01:13:30;;;;;;;55.60;37.70;;;;;;;-0.66;62.69;101859.71;109516;1269;23627;-75
2023/02/28 01:17:01;;;;;;;74.80;42.70;;;;;;;-0.68;62.71;101857.43;110095;1265;22141;-74
2023/02/28 01:20:51;;;;;;;64.00;39.40;;;;;;;-0.70;62.78;101858.39;109857;1265;22020;-75
2023/02/28 01:23:51;;;;;;;56.50;38.20;;;;;;;-0.71;63.02;101859.21;110592;1260;21969;-75
2023/02/28 01:32:00;;;;;;;55.70;38.80;;;;;;;-0.79;63.25;101860.85;108779;1277;23642;-73
2023/02/28 01:35:18;;;;;;;;;;;;;;;;;;;;;
2023/02/28 01:38:33;;;;;;;54.90;39.00;;;;;;;-0.86;63.22;101861.63;108982;1274;23141;-76
2023/02/28 01:45:42;;;;;;;61.80;41.10;;;;;;;-0.94;63.38;101857.26;109751;1265;22134;-75
2023/02/28 01:48:15;;;;;;;57.00;41.70;;;;;;;-1.02;63.52;101861.64;109880;1264;23113;-75
2023/02/28 01:50:48;;;;;;;66.60;41.10;;;;;;;-1.05;63.74;101862.38;109767;1268;21981;-75
2023/02/28 01:53:22;;;;;;;59.70;43.00;;;;;;;-1.07;63.79;101860.95;109773;1268;23583;-74
2023/02/28 01:55:55;;;;;;;82.40;60.60;;;;;;;-1.07;64.10;101855.80;109808;1268;22229;-75
2023/02/28 01:58:22;;;;;;;59.90;40.80;;;;;;;-1.08;64.07;101853.05;109720;1268;22005;-75
2023/02/28 02:00:53;;;;;;;59.40;43.00;;;;;;;-1.09;64.12;101855.58;109760;1268;22976;-76
2023/02/28 02:03:25;;;;;;;58.10;41.20;;;;;;;-1.11;64.19;101856.02;109927;1262;21981;-76
2023/02/28 02:06:43;;;;;;;57.80;42.10;;;;;;;-1.13;64.33;101849.09;110470;1264;22077;-76
2023/02/28 02:11:14;;;;;;;;;;;;;;;;;;;;;
2023/02/28 02:15:34;;;;;;;;;;;;;;;;;;;;;
2023/02/28 02:20:08;;;;;;;;;;;;;;;;;;;;;
2023/02/28 02:24:18;;;;;;;;;;;;;;;;;;;;;
2023/02/28 02:28:11;;;;;;;69.20;50.90;;;;;;;-1.50;65.17;101849.71;111232;1255;22138;-78
2023/02/28 02:31:31;;;;;;;;;;;;;;;;;;;;;
2023/02/28 02:34:26;;;;;;;62.80;47.40;;;;;;;-1.55;65.37;101848.52;111007;1258;23023;-77
2023/02/28 02:38:39;;;;;;;;;;;;;;;;;;;;;
2023/02/28 02:42:36;;;;;;;;;;;;;;;;;;;;;
2023/02/28 02:46:30;;;;;;;72.20;52.20;;;;;;;-1.67;65.53;101846.20;110480;1263;23781;-76
2023/02/28 02:54:43;;;;;;;;;;;;;;;;;;;;;
2023/02/28 02:58:20;;;;;;;67.70;48.70;;;;;;;-1.70;65.94;101854.95;111280;1254;23030;-73
2023/02/28 03:02:43;;;;;;;62.70;46.50;;;;;;;-1.73;66.16;101849.21;110807;1258;23600;-75
2023/02/28 03:06:30;;;;;;;69.30;50.20;;;;;;;-1.77;66.17;101850.27;109104;1275;22004;-77
2023/02/28 03:09:26;;;;;;;61.10;46.70;;;;;;;-1.76;66.20;101851.68;108638;1280;22006;-76
2023/02/28 03:12:56;;;;;;;57.60;43.00;;;;;;;-1.73;66.32;101855.02;108602;1280;23759;-76
2023/02/28 03:16:37;;;;;;;56.30;40.60;;;;;;;-1.73;66.34;101852.98;108715;1278;22136;-76
2023/02/28 03:19:30;;;;;;;51.90;37.00;;;;;;;-1.74;66.29;101855.69;108728;1278;22653;-76
2023/02/28 03:22:12;;;;;;;61.40;39.50;;;;;;;-1.72;66.38;101859.84;108785;1274;22261;-75
2023/02/28 03:25:17;;;;;;;55.90;38.10;;;;;;;-1.70;66.39;101859.92;109665;1268;21978;-75
2023/02/28 03:28:17;;;;;;;50.80;36.00;;;;;;;-1.71;66.16;101861.59;109920;1268;23148;-74
2023/02/28 03:31:30;;;;;;;56.40;35.50;;;;;;;-1.75;66.20;101868.95;110019;1268;21974;-74
2023/02/28 03:34:22;;;;;;;51.40;33.50;;;;;;;-1.76;66.36;101872.67;109230;1270;23688;-75
2023/02/28 03:37:17;;;;;;;48.60;33.80;;;;;;;-1.79;66.13;101871.39;109656;1264;23710;-76
2023/02/28 03:40:45;;;;;;;;;;;;;;;;;;;;;
2023/02/28 03:45:02;;;;;;;46.10;33.50;;;;;;;-1.84;66.50;101872.02;109771;1269;23700;-77
2023/02/28 03:49:12;;;;;;;55.10;33.40;;;;;;;-1.87;66.39;101875.31;109667;1269;22201;-74
2023/02/28 03:53:04;;;;;;;;;;;;;;;;;;;;;
2023/02/28 03:56:06;;;;;;;48.70;34.30;;;;;;;-1.90;66.36;101884.61;108836;1272;22155;-75
2023/02/28 03:59:56;;;;;;;53.40;36.80;;;;;;;-1.89;66.53;101888.21;109778;1257;23043;-74
2023/02/28 04:03:39;;;;;;;;;;;;;;;;;;;;;
2023/02/28 04:06:50;;;;;;;56.10;38.60;;;;;;;-1.92;66.39;101884.36;109487;1271;23002;-74
2023/02/28 04:09:51;;;;;;;52.90;37.40;;;;;;;-1.93;66.41;101884.16;108979;1275;23780;-75
2023/02/28 04:13:11;;;;;;;;;;;;;;;;;;;;;
2023/02/28 04:16:16;;;;;;;58.90;38.20;;;;;;;-1.94;66.44;101882.91;108909;1275;22219;-74
2023/02/28 04:19:34;;;;;;;;;;;;;;;;;;;;;
2023/02/28 04:22:33;;;;;;;;;;;;;;;-1.97;66.45;101881.45;109285;1272;21983;-75
2023/02/28 04:29:59;;;;;;;;;;;;;;;;;;;;;
2023/02/28 04:33:15;;;;;;;50.00;35.30;;;;;;;-2.13;66.66;101888.84;108417;1279;24196;-76
2023/02/28 04:36:37;;;;;;;;;;;;;;;;;;;;;
2023/02/28 04:40:00;;;;;;;56.00;38.90;;;;;;;-2.11;66.74;101892.16;108389;1284;24507;-73
2023/02/28 04:46:20;;;;;;;;;;;;;;;;;;;;;
2023/02/28 04:52:37;;;;;;;51.80;39.10;;;;;;;-2.17;66.66;101897.23;108567;1281;22427;-75
2023/02/28 04:56:09;;;;;;;60.80;40.60;;;;;;;-2.19;66.69;101898.02;108524;1281;22028;-76
2023/02/28 04:59:12;;;;;;;;;;;;;;;;;;;;;
2023/02/28 05:02:31;;;;;;;;;;;;;;;;;;;;;
2023/02/28 05:05:31;;;;;;;68.40;45.70;;;;;;;-2.27;67.02;101901.96;108940;1271;22027;-76
2023/02/28 05:08:25;;;;;;;57.30;41.80;;;;;;;-2.28;66.95;101900.55;109143;1271;21986;-74
2023/02/28 05:11:03;;;;;;;55.90;42.60;;;;;;;-2.30;67.05;101902.67;109854;1266;23623;-74
2023/02/28 05:13:30;;;;;;;58.50;42.30;;;;;;;-2.31;67.08;101907.59;110254;1260;21971;-75
2023/02/28 05:16:09;;;;;;;59.10;43.60;;;;;;;-2.32;66.95;101910.12;110487;1260;22975;-75
2023/02/28 05:19:07;;;;;;;57.20;42.80;;;;;;;-2.33;66.95;101911.92;110199;1264;22835;-75
2023/02/28 05:22:33;;;;;;;;;;;;;;;;;;;;;
2023/02/28 05:37:30;;;;;;;56.70;43.00;;;;;;;-0.95;63.20;101920.39;108133;1286;548697;-75
2023/02/28 05:40:20;;;;;;;62.70;44.90;;;;;;;-0.70;61.80;101925.21;105937;1269;4598954;-75
2023/02/28 05:43:39;;;;;;;58.60;42.70;;;;;;;-1.18;62.79;101926.33;109835;1270;21983;-74
2023/02/28 05:46:29;;;;;;;56.70;40.70;;;;;;;-1.48;63.42;101934.45;109127;1272;23027;-75
2023/02/28 05:49:35;;;;;;;54.80;37.90;;;;;;;-1.67;63.74;101935.64;109228;1275;22771;-76
2023/02/28 05:52:45;;;;;;;51.00;38.30;;;;;;;-1.83;63.91;101931.80;109197;1274;23604;-77
2023/02/28 05:58:55;;;;;;;53.20;38.30;;;;;;;-2.02;64.61;101937.21;108721;1280;22003;-76
2023/02/28 06:01:59;;;;;;;50.50;37.70;;;;;;;-2.05;64.76;101938.65;108713;1280;22000;-75
2023/02/28 06:04:59;;;;;;;47.00;37.10;;;;;;;-2.09;64.87;101945.11;109264;1270;23711;-75
2023/02/28 06:07:46;;;;;;;55.80;37.90;;;;;;;-2.12;64.97;101952.83;109434;1270;24305;-75
2023/02/28 06:10:57;;;;;;;56.80;37.10;;;;;;;-2.13;65.04;101955.70;109504;1270;23189;-75
2023/02/28 06:13:51;;;;;;;68.20;43.30;;;;;;;-2.14;65.11;101952.44;109492;1268;22671;-75
2023/02/28 06:16:45;;;;;;;73.50;39.20;;;;;;;-2.15;65.09;101956.33;109820;1268;24588;-76
2023/02/28 06:20:13;;;;;;;;;;;;;;;;;;;;;
2023/02/28 06:23:46;;;;;;;85.20;45.10;;;;;;;-2.19;65.27;101964.69;110335;1264;22226;-75
2023/02/28 06:26:57;;;;;;;;;;;;;;;-2.19;65.33;101967.60;110197;1264;21965;-76
2023/02/28 06:30:23;;;;;;;67.20;39.40;;;;;;;-2.23;65.58;101968.61;110381;1261;22122;-76
2023/02/28 06:33:30;;;;;;;84.10;47.60;;;;;;;-2.19;65.66;101973.06;110185;1264;21973;-76
2023/02/28 06:36:19;;;;;;;80.00;45.80;;;;;;;-2.08;65.52;101976.23;110379;1265;21984;-75
2023/02/28 06:39:00;;;;;;;67.00;43.70;;;;;;;-1.99;65.49;101977.77;109972;1256;21998;-76
2023/02/28 06:42:10;;;;;;;68.80;41.30;;;;;;;-1.90;65.29;101980.67;109723;1269;21980;-75
2023/02/28 06:45:38;;;;;;;64.90;41.20;;;;;;;-1.83;65.24;101982.48;109758;1269;22009;-76
2023/02/28 06:48:51;;;;;;;56.20;40.80;;;;;;;-1.72;65.30;101982.75;109627;1268;21978;-75
2023/02/28 06:52:11;;;;;;;58.00;41.30;;;;;;;-1.61;65.25;101986.75;110177;1264;22413;-72
2023/02/28 06:55:18;;;;;;;59.40;45.00;;;;;;;-1.50;65.13;101988.52;110173;1264;21980;-74
2023/02/28 06:58:14;;;;;;;50.00;37.00;;;;;;;-1.40;65.02;101992.51;110610;1259;22009;-74
2023/02/28 07:00:52;;;;;;;52.30;41.00;;;;;;;-1.33;64.83;101994.10;110736;1255;23741;-76
2023/02/28 07:03:28;;;;;;;46.20;37.30;;;;;;;-1.23;64.74;101998.23;110204;1259;22032;-77
2023/02/28 07:06:04;;;;;;;50.80;41.90;;;;;;;-1.15;64.40;101998.53;110037;1263;22983;-76
2023/02/28 07:13:08;;;;;;;44.40;32.30;;;;;;;-1.05;64.06;101997.86;109609;1271;22073;-78
2023/02/28 07:15:52;;;;;;;44.80;35.20;;;;;;;-0.98;63.58;101998.63;109434;1272;23035;-77
2023/02/28 07:18:37;;;;;;;47.80;36.60;;;;;;;-0.94;63.08;102003.58;108958;1276;22024;-76
2023/02/28 07:21:27;;;;;;;49.70;31.60;;;;;;;-0.88;62.94;102002.58;108904;1274;22490;-77
2023/02/28 07:24:31;;;;;;;;;;;;;;;;;;;;;
2023/02/28 07:27:37;;;;;;;48.00;35.00;;;;;;;-0.66;62.68;102003.00;109012;1277;23640;-76
2023/02/28 07:30:19;;;;;;;101.90;73.80;;;;;;;-0.47;62.96;102002.63;108937;1277;22683;-76
2023/02/28 07:33:24;;;;;;;129.80;80.50;;;;;;;-0.22;62.78;102007.23;108770;1277;23059;-76
2023/02/28 07:36:13;;;;;;;42.60;30.90;;;;;;;0.04;62.69;102013.54;108836;1276;23660;-77
2023/02/28 07:38:53;;;;;;;36.30;28.90;;;;;;;0.25;61.71;102020.86;108990;1276;21986;-76
2023/02/28 07:41:42;;;;;;;39.00;28.30;;;;;;;0.42;61.20;102018.48;109056;1276;21993;-76
2023/02/28 07:44:43;;;;;;;30.10;24.30;;;;;;;0.66;60.99;102014.56;109148;1272;24308;-76
2023/02/28 07:47:33;;;;;;;42.00;25.60;;;;;;;1.09;61.41;102011.33;110195;1266;21984;-77
2023/02/28 07:50:22;;;;;;;31.20;23.70;;;;;;;1.45;60.27;102008.19;110388;1263;22067;-77
2023/02/28 07:53:22;;;;;;;32.30;23.10;;;;;;;1.70;58.96;102002.48;110242;1263;22861;-76
2023/02/28 07:56:18;;;;;;;31.20;23.50;;;;;;;1.90;58.26;102002.47;110263;1263;21985;-78
2023/02/28 07:59:07;;;;;;;58.70;34.50;;;;;;;2.11;57.59;102001.25;110165;1263;21979;-75
2023/02/28 08:01:48;;;;;;;19.80;14.90;;;;;;;2.33;56.72;101999.67;110039;1262;23126;-77
2023/02/28 08:04:49;;;;;;;35.20;22.60;;;;;;;2.49;55.23;101999.36;109560;1270;22337;-77
2023/02/28 08:07:36;;;;;;;;;;;;;;;2.67;55.12;102000.26;109507;1265;21992;-77
2023/02/28 08:10:15;;;;;;;23.40;16.10;;;;;;;2.94;55.39;102003.73;110256;1264;21975;-77
2023/02/28 08:13:06;;;;;;;26.40;18.70;;;;;;;3.09;53.62;102002.30;110244;1264;23779;-76
2023/02/28 08:15:55;;;;;;;22.00;17.00;;;;;;;3.24;52.75;102006.90;110117;1264;21988;-76
2023/02/28 08:18:52;;;;;;;;;;;;;;;;;;;;;
2023/02/28 08:21:32;;;;;;;18.90;14.50;;;;;;;3.32;51.49;102002.39;110124;1265;21980;-76
2023/02/28 08:24:20;;;;;;;29.50;17.50;;;;;;;3.63;51.80;102000.70;110580;1264;23591;-77
2023/02/28 08:27:08;;;;;;;20.40;15.70;;;;;;;3.97;51.23;102002.11;110360;1265;22087;-79
2023/02/28 08:29:58;;;;;;;34.10;16.30;;;;;;;4.24;49.62;102002.02;110329;1265;21980;-76
2023/02/28 08:32:55;;;;;;;23.90;16.50;;;;;;;4.45;49.48;102003.36;110286;1265;21996;-76
2023/02/28 08:35:46;;;;;;;18.40;12.90;;;;;;;4.58;48.80;101997.48;110206;1265;21978;-75
2023/02/28 08:38:32;;;;;;;61.00;49.10;;;;;;;4.84;48.43;101995.73;110173;1265;23034;-76
2023/02/28 08:41:11;;;;;;;55.00;37.00;;;;;;;5.03;47.72;101991.83;109718;1270;23025;-76
2023/02/28 08:43:50;;;;;;;28.30;19.10;;;;;;;5.16;46.96;101991.28;110147;1265;21973;-77
2023/02/28 08:46:49;;;;;;;22.20;15.10;;;;;;;5.09;46.04;101992.59;110381;1264;21984;-77
2023/02/28 08:49:48;;;;;;;26.00;17.00;;;;;;;5.02;45.83;101993.02;110203;1264;22030;-76
2023/02/28 08:52:35;;;;;;;16.70;13.20;;;;;;;5.10;46.14;101993.80;110213;1262;22010;-77
2023/02/28 08:55:30;;;;;;;24.90;18.40;;;;;;;5.02;44.79;101994.76;110160;1262;21974;-76
2023/02/28 08:58:26;;;;;;;17.10;14.40;;;;;;;4.86;44.92;101995.08;110459;1265;21959;-75
2023/02/28 09:01:33;;;;;;;29.00;24.20;;;;;;;4.81;44.87;102002.95;110746;1259;23597;-76
2023/02/28 09:04:24;;;;;;;16.90;12.50;;;;;;;4.69;45.00;102001.08;110676;1258;22443;-76
2023/02/28 09:07:04;;;;;;;15.60;12.40;;;;;;;4.63;44.74;101994.80;110464;1263;23017;-77
2023/02/28 09:09:57;;;;;;;13.40;11.70;;;;;;;4.71;45.18;101995.58;109827;1269;23601;-76
2023/02/28 09:12:41;;;;;;;24.40;16.90;;;;;;;4.82;45.38;101991.93;109780;1268;23647;-76
2023/02/28 09:15:42;;;;;;;15.30;12.00;;;;;;;5.04;44.96;101995.64;109932;1269;22003;-75
2023/02/28 09:18:21;;;;;;;12.20;10.30;;;;;;;5.08;44.36;101998.27;109546;1268;23023;-77
2023/02/28 09:20:59;;;;;;;15.90;12.60;;;;;;;4.91;43.76;101996.70;110073;1268;22077;-74
2023/02/28 09:23:41;;;;;;;16.00;11.10;;;;;;;4.73;43.86;101995.95;109555;1268;22077;-74
2023/02/28 09:26:25;;;;;;;14.40;12.20;;;;;;;4.56;43.92;101996.60;109978;1264;23706;-73
2023/02/28 09:29:17;;;;;;;37.00;27.50;;;;;;;4.51;44.01;101998.60;110714;1259;23079;-73
2023/02/28 09:32:15;;;;;;;35.90;22.00;;;;;;;4.55;44.22;102009.01;110552;1259;21976;-74
2023/02/28 09:35:12;;;;;;;18.60;12.60;;;;;;;4.33;43.64;102010.06;110699;1258;22835;-72
2023/02/28 09:38:13;;;;;;;15.50;11.10;;;;;;;4.11;44.22;102009.05;110708;1259;21970;-74
2023/02/28 09:42:00;;;;;;;14.20;12.30;;;;;;;3.91;44.26;102003.76;110689;1256;23043;-73
2023/02/28 09:45:33;;;;;;;15.80;12.30;;;;;;;3.95;44.94;101996.91;110911;1255;21966;-75
2023/02/28 09:49:09;;;;;;;14.10;12.30;;;;;;;4.26;45.27;101994.98;109996;1266;23025;-74
2023/02/28 09:52:32;;;;;;;18.80;11.40;;;;;;;4.41;44.51;101996.06;110080;1266;23705;-75
2023/02/28 09:56:31;;;;;;;16.00;11.60;;;;;;;4.38;44.07;101996.69;109872;1266;23012;-71
2023/02/28 10:00:16;;;;;;;16.30;12.60;;;;;;;4.31;44.65;101995.23;108939;1276;21989;-73
2023/02/28 10:03:27;;;;;;;16.80;12.40;;;;;;;4.56;44.77;101991.42;108805;1279;22750;-72
2023/02/28 10:07:14;;;;;;;;;;;;;;;;;;;;;
2023/02/28 10:10:23;;;;;;;14.90;12.70;;;;;;;4.96;44.42;101986.06;108784;1279;22090;-72
2023/02/28 10:14:07;;;;;;;15.90;12.40;;;;;;;5.29;43.98;101988.14;108654;1279;21997;-73
2023/02/28 10:17:15;;;;;;;20.40;13.50;;;;;;;5.55;43.31;101987.54;108875;1279;23141;-74
2023/02/28 10:20:10;;;;;;;14.40;11.20;;;;;;;5.74;43.17;101991.30;108919;1279;23780;-73
2023/02/28 10:23:21;;;;;;;13.30;11.00;;;;;;;6.00;43.17;101993.44;108563;1283;23689;-75
2023/02/28 10:26:31;;;;;;;13.50;9.40;;;;;;;6.43;42.76;101997.89;108928;1275;21987;-73
2023/02/28 10:29:11;;;;;;;17.00;13.80;;;;;;;6.88;42.46;101988.41;109153;1275;21987;-73
2023/02/28 10:31:52;;;;;;;16.10;12.90;;;;;;;7.68;42.12;101994.45;108831;1281;23010;-73
2023/02/28 10:34:38;;;;;;;12.00;10.40;;;;;;;8.51;40.35;101997.66;108865;1279;21995;-72
2023/02/28 10:37:37;;;;;;;15.50;11.20;;;;;;;9.11;39.70;101997.25;109536;1270;22339;-74
2023/02/28 10:40:22;;;;;;;12.80;10.50;;;;;;;9.83;38.07;101998.51;109531;1271;22011;-73
2023/02/28 10:43:25;;;;;;;15.60;11.60;;;;;;;10.43;38.03;101998.11;109687;1270;21997;-74
2023/02/28 10:46:06;;;;;;;19.00;12.00;;;;;;;11.40;37.36;101990.23;109273;1274;24199;-72
2023/02/28 10:49:30;;;;;;;14.10;10.60;;;;;;;12.57;36.80;101993.80;110016;1269;23653;-75
2023/02/28 10:52:35;;;;;;;15.30;11.80;;;;;;;13.55;34.89;101987.48;110530;1263;23628;-73
2023/02/28 10:55:25;;;;;;;10.80;9.70;;;;;;;14.10;33.05;101988.58;110580;1263;21982;-75
2023/02/28 10:58:25;;;;;;;12.00;9.70;;;;;;;14.58;32.14;101987.82;110524;1262;21968;-73
2023/02/28 11:01:40;;;;;;;10.60;9.50;;;;;;;15.25;31.46;101986.67;109825;1268;22848;-73
2023/02/28 11:04:49;;;;;;;11.30;9.10;;;;;;;15.51;30.22;101984.30;110102;1264;21970;-73
2023/02/28 11:08:11;;;;;;;10.50;9.20;;;;;;;15.63;29.63;101983.57;110542;1260;23018;-74
2023/02/28 11:10:33;;;;;;;10.60;9.20;;;;;;;15.35;28.88;101985.51;110079;1265;24517;-74
2023/02/28 11:13:40;;;;;;;11.00;9.60;;;;;;;15.11;29.44;101978.89;110110;1265;21976;-74
2023/02/28 11:16:52;;;;;;;11.60;10.30;;;;;;;15.10;28.45;101977.36;110150;1265;21992;-72
2023/02/28 11:20:23;;;;;;;11.90;10.30;;;;;;;14.61;28.02;101973.86;110486;1259;22778;-72
2023/02/28 11:23:18;;;;;;;13.80;11.20;;;;;;;12.62;27.63;101970.53;110419;1265;23721;-74
2023/02/28 11:26:15;;;;;;;;;;;;;;;;;;;;;
2023/02/28 11:35:11;;;;;;;13.70;11.60;;;;;;;7.97;31.64;101964.39;108872;1276;21992;-73
2023/02/28 11:43:13;;;;;;;13.60;11.20;;;;;;;5.21;34.73;101964.23;108684;1281;22536;-73
2023/02/28 11:46:40;;;;;;;14.10;12.30;;;;;;;4.52;35.63;101965.84;109114;1272;23092;-73
2023/02/28 11:51:13;;;;;;;14.30;11.70;;;;;;;4.01;37.19;101964.96;109088;1275;21994;-74
2023/02/28 11:54:08;;;;;;;18.70;13.60;;;;;;;3.85;37.85;101965.77;109025;1274;23108;-73
2023/02/28 11:58:03;;;;;;;20.90;18.10;;;;;;;3.61;37.66;101956.94;108553;1281;22273;-72
2023/02/28 12:01:51;;;;;;;22.10;17.10;;;;;;;3.33;38.41;101956.46;107857;1291;23081;-72
2023/02/28 12:05:13;;;;;;;;;;;;;;;;;;;;;
2023/02/28 12:09:20;;;;;;;;;;;;;;;;;;;;;
2023/02/28 12:13:52;;;;;;;22.60;18.10;;;;;;;3.16;40.19;101948.24;108509;1283;23772;-75
2023/02/28 12:30:45;;;;;;;;;;;;;;;;;;;;;
2023/02/28 12:34:28;;;;;;;;;;;;;;;;;;;;;
2023/02/28 12:38:45;;;;;;;;;;;;;;;;;;;;;
2023/02/28 12:42:10;;;;;;;20.80;16.10;;;;;;;2.99;41.75;101923.84;108147;1289;23776;-75
2023/02/28 12:45:48;;;;;;;19.50;14.90;;;;;;;2.97;41.87;101915.38;107734;1293;22011;-75
2023/02/28 12:54:04;;;;;;;16.30;13.20;;;;;;;3.12;42.36;101909.46;107144;1298;23657;-75
2023/02/28 12:57:03;;;;;;;18.10;14.50;;;;;;;3.09;42.32;101902.89;107130;1299;22223;-75
2023/02/28 13:05:06;;;;;;;;;;;;;;;;;;;;;
2023/02/28 13:08:59;;;;;;;19.80;15.30;;;;;;;3.01;41.88;101891.55;106865;1304;22673;-75
2023/02/28 13:12:42;;;;;;;18.20;14.60;;;;;;;2.82;42.32;101888.61;107482;1297;22051;-73
2023/02/28 13:16:35;;;;;;;;;;;;;;;;;;;;;
2023/02/28 13:36:40;;;;;;;;;;;;;;;;;;;;;
2023/02/28 13:42:00;;;;;;;17.60;15.80;;;;;;;3.63;42.08;101879.49;111116;1256;21982;-74
2023/02/28 13:51:09;;;;;;;17.00;14.50;;;;;;;2.87;42.97;101871.87;109085;1275;22021;-75
2023/02/28 14:06:04;;;;;;;25.00;18.90;;;;;;;3.94;42.04;101861.36;110985;1258;547639;-75
2023/02/28 14:10:50;;;;;;;;;;;;;;;;;;;;;
2023/02/28 14:15:38;;;;;;;;;;;;;;;;;;;;;
2023/02/28 14:19:49;;;;;;;23.20;17.60;;;;;;;3.17;43.64;101859.16;110741;1260;21996;-75
2023/02/28 14:24:21;;;;;;;;;;;;;;;;;;;;;
2023/02/28 14:27:25;;;;;;;24.30;20.30;;;;;;;2.97;44.60;101850.21;109291;1272;22023;-76
2023/02/28 14:31:07;;;;;;;26.10;16.70;;;;;;;2.97;44.78;101851.41;109280;1271;24317;-76
2023/02/28 14:35:14;;;;;;;;;;;;;;;;;;;;;
2023/02/28 14:38:41;;;;;;;24.40;20.60;;;;;;;2.83;44.91;101837.94;109359;1272;22001;-75
2023/02/28 14:43:00;;;;;;;25.00;18.30;;;;;;;2.83;45.20;101843.26;108766;1277;23011;-76
2023/02/28 14:46:15;;;;;;;24.60;18.50;;;;;;;2.77;45.10;101846.92;109293;1271;22044;-75
2023/02/28 15:02:47;;;;;;;18.90;16.20;;;;;;;4.35;42.70;101828.25;106355;1262;5978712;-74
2023/02/28 15:06:31;;;;;;;23.60;17.90;;;;;;;3.94;43.47;101829.14;111758;1248;21971;-72
2023/02/28 15:10:51;;;;;;;20.80;18.10;;;;;;;3.64;43.83;101826.15;112925;1237;21970;-73
2023/02/28 15:14:24;;;;;;;;;;;;;;;;;;;;;
2023/02/28 15:18:29;;;;;;;25.40;19.80;;;;;;;3.29;44.68;101823.21;112011;1244;22076;-72
2023/02/28 15:22:27;;;;;;;;;;;;;;;;;;;;;
2023/02/28 15:31:10;;;;;;;;;;;;;;;;;;;;;
2023/02/28 15:36:14;;;;;;;23.70;18.50;;;;;;;2.72;45.81;101811.25;111313;1256;22868;-74
2023/02/28 15:43:16;;;;;;;;;;;;;;;;;;;;;
2023/02/28 15:46:30;;;;;;;;;;;;;;;;;;;;;
2023/02/28 15:50:00;;;;;;;;;;;;;;;;;;;;;
2023/02/28 15:53:37;;;;;;;;;;;;;;;;;;;;;
2023/02/28 15:56:55;;;;;;;;;;;;;;;2.09;47.49;101809.02;111024;1255;21966;-73
2023/02/28 16:00:27;;;;;;;28.50;23.60;;;;;;;2.02;47.62;101806.65;111102;1255;22314;-75
2023/02/28 16:03:39;;;;;;;35.70;26.20;;;;;;;1.99;47.67;101811.39;111116;1255;24378;-73
2023/02/28 16:06:20;;;;;;;28.20;24.00;;;;;;;1.98;47.63;101812.56;110836;1259;21979;-73
2023/02/28 16:09:00;;;;;;;29.50;22.80;;;;;;;1.96;47.73;101814.59;110619;1261;22498;-73
2023/02/28 16:11:56;;;;;;;30.70;23.90;;;;;;;1.93;47.82;101813.17;110941;1254;22735;-73
2023/02/28 16:14:45;;;;;;;30.30;24.80;;;;;;;1.89;48.07;101812.56;111450;1244;24292;-75
2023/02/28 16:17:50;;;;;;;37.90;28.10;;;;;;;1.88;48.07;101811.67;112407;1244;21988;-74
2023/02/28 16:24:03;;;;;;;35.10;27.90;;;;;;;1.77;48.28;101819.15;112336;1239;23014;-74
2023/02/28 16:26:57;;;;;;;46.60;33.00;;;;;;;1.73;48.41;101818.91;112977;1238;22094;-74
2023/02/28 16:30:31;;;;;;;50.00;39.10;;;;;;;1.71;48.62;101823.83;112136;1244;21964;-74
2023/02/28 16:33:33;;;;;;;52.50;36.20;;;;;;;1.68;48.80;101824.81;112262;1238;21950;-72
2023/02/28 16:36:24;;;;;;;56.60;37.00;;;;;;;1.67;48.81;101829.75;112513;1239;23008;-73
2023/02/28 16:38:56;;;;;;;66.80;40.90;;;;;;;1.64;48.98;101830.56;112495;1230;23026;-74
2023/02/28 16:41:37;;;;;;;78.40;42.60;;;;;;;1.60;49.05;101833.20;112687;1239;23562;-73
2023/02/28 16:44:35;;;;;;;73.60;42.90;;;;;;;1.55;49.20;101832.05;112643;1238;21942;-72
2023/02/28 16:47:34;;;;;;;;;;;;;;;;;;;;;
2023/02/28 16:50:25;;;;;;;87.00;53.40;;;;;;;1.40;49.83;101840.10;112418;1238;21938;-72
2023/02/28 16:52:55;;;;;;;102.20;60.50;;;;;;;1.32;49.99;101841.99;112708;1238;21962;-72
2023/02/28 16:55:50;;;;;;;183.50;114.90;;;;;;;1.27;50.30;101846.67;112471;1238;24281;-73
2023/02/28 16:58:39;;;;;;;131.10;81.80;;;;;;;1.21;50.69;101845.99;112245;1244;21969;-73
2023/02/28 17:01:51;;;;;;;113.00;71.20;;;;;;;1.15;50.84;101850.67;112621;1239;23683;-74
2023/02/28 17:04:45;;;;;;;121.40;70.90;;;;;;;1.07;51.09;101847.88;112234;1244;21954;-73
2023/02/28 17:07:51;;;;;;;129.30;69.70;;;;;;;0.99;51.29;101845.63;111987;1244;23034;-75
2023/02/28 17:11:16;;;;;;;75.30;50.90;;;;;;;0.90;51.61;101842.14;112103;1244;23877;-74
2023/02/28 17:14:16;;;;;;;69.90;47.90;;;;;;;0.84;51.91;101846.45;111849;1244;21948;-74
2023/02/28 17:17:14;;;;;;;69.00;51.20;;;;;;;0.82;52.18;101845.20;112104;1240;22005;-76
2023/02/28 17:24:51;;;;;;;112.80;74.00;;;;;;;0.73;52.36;101854.56;111697;1250;23365;-76
2023/02/28 17:27:57;;;;;;;107.20;68.30;;;;;;;0.70;52.37;101856.52;111030;1254;21992;-76
2023/02/28 17:30:51;;;;;;;96.10;69.40;;;;;;;0.68;52.38;101858.88;111056;1257;22649;-75
2023/02/28 17:34:03;;;;;;;;;;;;;;;0.64;52.44;101862.04;110707;1257;21949;-75
2023/02/28 17:37:27;;;;;;;196.80;106.30;;;;;;;0.52;52.73;101862.73;110942;1257;22190;-75
2023/02/28 17:41:16;;;;;;;244.10;135.90;;;;;;;0.45;52.95;101866.80;111423;1252;21957;-73
2023/02/28 17:45:20;;;;;;;218.60;123.70;;;;;;;0.40;53.11;101868.05;111475;1248;23174;-76
2023/02/28 17:48:31;;;;;;;200.80;114.00;;;;;;;0.37;53.40;101860.94;111660;1247;21972;-73
2023/02/28 17:51:17;;;;;;;192.00;115.20;;;;;;;0.37;53.46;101860.27;111568;1247;22365;-73
2023/02/28 17:54:15;;;;;;;209.20;125.40;;;;;;;0.39;53.55;101857.91;111880;1242;21951;-76
2023/02/28 18:00:20;;;;;;;188.40;114.30;;;;;;;0.37;53.73;101853.58;112441;1242;23698;-75
2023/02/28 18:03:12;;;;;;;198.80;123.70;;;;;;;0.37;53.74;101850.15;113239;1233;22798;-74
2023/02/28 18:05:59;;;;;;;215.90;132.10;;;;;;;0.37;53.93;101849.47;113254;1233;23565;-75
2023/02/28 18:09:31;;;;;;;193.90;124.40;;;;;;;0.34;54.06;101852.98;113452;1233;22538;-76
2023/02/28 18:12:10;;;;;;;;;;;;;;;0.28;54.20;101855.38;112994;1236;21934;-73
2023/02/28 18:14:48;;;;;;;195.30;120.50;;;;;;;0.13;54.27;101847.42;113038;1235;21946;-73
2023/02/28 18:17:30;;;;;;;203.80;125.20;;;;;;;0.06;54.37;101846.02;112742;1236;22334;-72
2023/02/28 18:20:05;;;;;;;216.50;129.20;;;;;;;0.02;54.59;101847.80;112911;1236;21938;-73
2023/02/28 18:22:50;;;;;;;227.00;133.40;;;;;;;-0.01;54.70;101847.35;113076;1236;21969;-72
2023/02/28 18:25:29;;;;;;;;;;;;;;;-0.06;55.04;101845.99;112962;1236;21930;-74
2023/02/28 18:28:07;;;;;;;244.20;134.00;;;;;;;-0.19;55.46;101844.77;113079;1236;23511;-76
2023/02/28 18:30:43;;;;;;;247.70;139.60;;;;;;;-0.24;55.58;101843.77;112886;1236;23810;-74
2023/02/28 18:33:16;;;;;;;235.30;144.30;;;;;;;-0.27;55.70;101841.45;113084;1236;22731;-74
2023/02/28 18:36:00;;;;;;;259.90;158.00;;;;;;;-0.30;55.96;101842.73;113054;1236;21930;-76
2023/02/28 18:38:37;;;;;;;253.50;150.60;;;;;;;-0.31;56.05;101848.48;112928;1236;22626;-77